Terminal Aerodrome Forecast
Issued by NWS

Home | Current Version | Previous Version | Graphics & Text | Print | Product List | Glossary On
Versions: 1 2 3 4 5 6 7 8 9 10 11 12 13 14 15 16 17 18
000
FTUS43 KMPX 170520
TAFRWF
TAF
KRWF 170520Z 1706/1806 19013KT P6SM SCT250
     FM170800 22009KT P6SM OVC060
      TEMPO 1710/1713 3SM -SN OVC040
     FM171300 25007KT P6SM SCT200
     FM171700 30010KT P6SM SKC=

USA.gov is the U.S. government's official web portal to all federal, state and local government web resources and services.